221420Z 19011KT CAVOK 04/M03 Q1021 RWY 14 CLEAR AND DRY 51-100 PCT FCT 0.60=

221430Z 2215/2224 18010KT CAVOK BECMG 2219/2221 18020G30KT=

Aktuell METAR/TAF ESNU/UME

Källa: Luftfartsverket (aro.lfv.se)